createdAt,value
2019-05-02T00:01:36.227Z,14.18
2019-05-02T00:04:05.661Z,14.22
2019-05-02T00:06:38.173Z,14.21
2019-05-02T00:09:09.359Z,14.23
2019-05-02T00:11:39.586Z,14.28
2019-05-02T00:14:09.577Z,14.30
2019-05-02T00:16:39.419Z,14.31
2019-05-02T00:19:13.542Z,14.32
2019-05-02T00:21:42.971Z,14.21
2019-05-02T00:24:14.125Z,14.20
2019-05-02T00:26:43.547Z,14.14
2019-05-02T00:29:13.058Z,14.12
2019-05-02T00:31:46.823Z,14.10
2019-05-02T00:34:13.721Z,14.12
2019-05-02T00:36:43.128Z,14.09
2019-05-02T00:39:13.732Z,14.03
2019-05-02T00:41:43.680Z,14.02
2019-05-02T00:44:13.105Z,14.04
2019-05-02T00:46:42.544Z,14.01
2019-05-02T00:49:11.949Z,14.01
2019-05-02T00:51:41.375Z,13.98
2019-05-02T00:54:10.779Z,13.95
2019-05-02T00:56:43.955Z,13.93
2019-05-02T00:59:11.351Z,13.90
2019-05-02T01:02:08.720Z,13.89
2019-05-02T01:04:40.071Z,13.88
2019-05-02T01:07:10.049Z,13.91
2019-05-02T01:09:42.203Z,13.91
2019-05-02T01:12:10.630Z,13.90
2019-05-02T01:14:40.040Z,13.85
2019-05-02T01:17:09.458Z,13.84
2019-05-02T01:19:38.866Z,13.86
2019-05-02T01:22:10.726Z,13.89
2019-05-02T01:24:41.605Z,13.94
2019-05-02T01:27:25.780Z,14.01
2019-05-02T01:30:05.958Z,14.05
2019-05-02T01:32:46.052Z,14.03
2019-05-02T01:35:21.426Z,13.99
2019-05-02T01:38:18.559Z,14.01
2019-05-02T01:40:53.116Z,14.03
2019-05-02T01:43:26.188Z,14.02
2019-05-02T01:45:55.632Z,13.98
2019-05-02T01:48:25.048Z,13.93
2019-05-02T01:50:54.485Z,13.89
2019-05-02T01:53:23.948Z,13.90
2019-05-02T01:55:57.582Z,13.91
2019-05-02T01:58:24.600Z,13.88
2019-05-02T02:00:54.009Z,13.88
2019-05-02T02:03:23.438Z,13.91
2019-05-02T02:05:52.850Z,13.91
2019-05-02T02:08:22.296Z,13.87
2019-05-02T02:10:56.468Z,13.88
2019-05-02T02:13:23.052Z,13.86
2019-05-02T02:15:52.475Z,13.92
2019-05-02T02:18:27.633Z,13.90
2019-05-02T02:21:20.111Z,13.93
2019-05-02T02:23:58.093Z,13.95
2019-05-02T02:26:27.713Z,14.01
2019-05-02T02:28:57.127Z,14.05
2019-05-02T02:31:26.592Z,14.06
2019-05-02T02:33:56.019Z,14.05
2019-05-02T02:36:32.078Z,14.06
2019-05-02T02:38:56.649Z,14.15
2019-05-02T02:41:26.079Z,14.12
2019-05-02T02:44:26.743Z,14.14
2019-05-02T02:46:56.179Z,14.15
2019-05-02T02:49:25.584Z,14.15
2019-05-02T02:51:57.798Z,14.16
2019-05-02T02:54:26.135Z,14.14
2019-05-02T02:56:55.579Z,14.15
2019-05-02T02:59:26.258Z,14.15
2019-05-02T03:01:56.134Z,14.06
2019-05-02T03:04:25.537Z,14.01
2019-05-02T03:06:55.093Z,13.97
2019-05-02T03:09:26.494Z,13.89
2019-05-02T03:12:23.443Z,13.83
2019-05-02T03:14:55.527Z,13.76
2019-05-02T03:17:26.116Z,13.80
2019-05-02T03:20:01.106Z,13.83
2019-05-02T03:22:27.334Z,13.68
2019-05-02T03:24:56.837Z,13.85
2019-05-02T03:27:30.023Z,13.87
2019-05-02T03:29:57.517Z,13.84
2019-05-02T03:32:34.298Z,13.89
2019-05-02T03:34:58.199Z,13.90
2019-05-02T03:37:27.616Z,13.91
2019-05-02T03:40:00.174Z,13.88
2019-05-02T03:42:28.209Z,13.96
2019-05-02T03:45:03.987Z,14.10
2019-05-02T03:47:28.866Z,14.26
2019-05-02T03:50:00.870Z,14.36
2019-05-02T03:52:30.317Z,14.44
2019-05-02T03:54:59.758Z,14.59
2019-05-02T03:57:33.371Z,14.78
2019-05-02T04:00:00.326Z,14.91
2019-05-02T04:02:29.774Z,15.07
2019-05-02T04:05:00.695Z,15.31
2019-05-02T04:07:39.622Z,15.45
2019-05-02T04:10:01.735Z,15.66
2019-05-02T04:12:32.963Z,15.76
2019-05-02T04:15:02.323Z,15.86
2019-05-02T04:17:35.738Z,15.95
2019-05-02T04:20:09.263Z,15.90
2019-05-02T04:22:34.098Z,16.08
2019-05-02T04:25:06.365Z,16.16
2019-05-02T04:27:35.930Z,16.24
2019-05-02T04:30:11.394Z,16.37
2019-05-02T04:32:37.128Z,16.47
2019-05-02T04:35:06.552Z,16.58
2019-05-02T04:37:41.282Z,16.81
2019-05-02T04:40:11.426Z,17.23
2019-05-02T04:42:39.340Z,17.82
2019-05-02T04:45:24.197Z,18.84
2019-05-02T04:47:42.554Z,18.72
2019-05-02T04:50:17.842Z,18.45
2019-05-02T04:52:48.364Z,18.32
2019-05-02T04:55:24.857Z,17.94
2019-05-02T04:57:50.491Z,17.79
2019-05-02T05:00:18.960Z,17.89
2019-05-02T05:02:52.708Z,17.90
2019-05-02T05:05:25.559Z,17.75
2019-05-02T05:07:50.819Z,17.98
2019-05-02T05:10:20.243Z,18.25
2019-05-02T05:12:49.647Z,18.28
2019-05-02T05:15:35.846Z,18.38
2019-05-02T05:17:50.315Z,18.28
2019-05-02T05:20:19.747Z,18.21
2019-05-02T05:22:49.150Z,18.16
2019-05-02T05:25:23.990Z,17.81
2019-05-02T05:27:58.709Z,17.66
2019-05-02T05:30:24.578Z,17.41
2019-05-02T05:32:53.995Z,17.02
2019-05-02T05:35:23.413Z,16.95
2019-05-02T05:37:53.428Z,16.94
2019-05-02T05:40:30.393Z,17.10
2019-05-02T05:42:54.076Z,17.25
2019-05-02T05:45:23.522Z,17.38
2019-05-02T05:47:57.550Z,17.53
2019-05-02T05:50:24.084Z,17.44
2019-05-02T05:52:53.508Z,17.43
2019-05-02T05:55:24.341Z,17.77
2019-05-02T05:58:00.053Z,18.07
2019-05-02T06:00:27.638Z,18.16
2019-05-02T06:03:09.123Z,18.39
2019-05-02T06:05:27.745Z,18.68
2019-05-02T06:07:57.604Z,18.66
2019-05-02T06:10:27.060Z,19.92
2019-05-02T06:12:56.494Z,20.12
2019-05-02T06:15:24.156Z,19.55
2019-05-02T06:17:53.604Z,19.32
2019-05-02T06:20:25.631Z,18.88
2019-05-02T06:22:54.912Z,18.69
2019-05-02T06:25:34.598Z,18.57
2019-05-02T06:28:00.164Z,18.66
2019-05-02T06:30:31.059Z,18.92
2019-05-02T06:32:58.764Z,19.53
2019-05-02T06:35:28.274Z,20.00
2019-05-02T06:37:57.741Z,19.89
2019-05-02T06:40:27.183Z,19.97
2019-05-02T06:42:56.599Z,19.90
2019-05-02T06:45:26.078Z,19.72
2019-05-02T06:47:55.493Z,19.44
2019-05-02T06:50:25.001Z,19.19
2019-05-02T06:52:54.428Z,19.24
2019-05-02T06:55:28.117Z,19.48
2019-05-02T06:57:57.110Z,19.70
2019-05-02T07:00:35.609Z,19.86
2019-05-02T07:02:57.270Z,19.90
2019-05-02T07:05:27.344Z,19.73
2019-05-02T07:07:57.719Z,19.77
2019-05-02T07:10:30.925Z,20.06
2019-05-02T07:13:10.179Z,20.13
2019-05-02T07:15:48.704Z,20.31
2019-05-02T07:18:19.184Z,20.50
2019-05-02T07:20:48.606Z,20.17
2019-05-02T07:23:18.404Z,20.55
2019-05-02T07:25:47.110Z,20.97
2019-05-02T07:28:15.591Z,20.71
2019-05-02T07:30:44.091Z,20.63
2019-05-02T07:33:12.565Z,20.25
2019-05-02T07:35:41.069Z,20.71
2019-05-02T07:38:09.561Z,21.12
2019-05-02T07:40:38.034Z,21.41
2019-05-02T07:43:06.508Z,21.69
2019-05-02T07:45:34.965Z,22.16
2019-05-02T07:48:03.491Z,22.61
2019-05-02T07:50:31.974Z,22.75
2019-05-02T07:53:04.403Z,23.19
2019-05-02T07:55:30.775Z,23.25
2019-05-02T07:58:02.053Z,23.04
2019-05-02T08:00:32.118Z,22.97
2019-05-02T08:03:00.947Z,22.55
2019-05-02T08:05:29.403Z,22.36
2019-05-02T08:07:57.902Z,22.50
2019-05-02T08:10:26.361Z,22.64
2019-05-02T08:12:54.851Z,23.14
2019-05-02T08:15:24.734Z,23.15
2019-05-02T08:17:55.070Z,23.47
2019-05-02T08:20:24.744Z,23.65
2019-05-02T08:22:54.146Z,23.84
2019-05-02T08:25:23.568Z,24.41
2019-05-02T08:27:58.614Z,23.97
2019-05-02T08:30:35.289Z,23.58
2019-05-02T08:33:02.784Z,22.94
2019-05-02T08:35:32.185Z,23.28
2019-05-02T08:38:01.654Z,23.45
2019-05-02T08:40:31.276Z,23.19
2019-05-02T08:43:03.485Z,23.26
2019-05-02T08:45:33.032Z,23.31
2019-05-02T08:48:05.294Z,23.52
2019-05-02T08:50:34.291Z,23.76
2019-05-02T08:53:03.727Z,23.67
2019-05-02T08:55:33.136Z,23.96
2019-05-02T08:58:06.090Z,24.25
2019-05-02T09:00:37.476Z,24.53
2019-05-02T09:03:04.931Z,24.45
2019-05-02T09:05:36.946Z,24.50
2019-05-02T09:08:09.258Z,24.72
2019-05-02T09:10:37.140Z,24.41
2019-05-02T09:13:07.816Z,23.85
2019-05-02T09:15:40.313Z,24.08
2019-05-02T09:18:08.406Z,24.06
2019-05-02T09:20:37.817Z,23.88
2019-05-02T09:23:07.253Z,24.25
2019-05-02T09:25:36.740Z,24.57
2019-05-02T09:28:06.266Z,24.68
2019-05-02T09:30:35.775Z,24.70
2019-05-02T09:33:06.747Z,24.98
2019-05-02T09:35:36.222Z,25.13
2019-05-02T09:38:05.703Z,25.36
2019-05-02T09:40:35.114Z,25.28
2019-05-02T09:43:04.875Z,25.17
2019-05-02T09:45:37.286Z,24.87
2019-05-02T09:48:08.091Z,25.03
2019-05-02T09:50:38.519Z,25.28
2019-05-02T09:53:13.016Z,25.39
2019-05-02T09:55:42.294Z,25.86
2019-05-02T09:58:14.877Z,25.82
2019-05-02T10:00:57.377Z,25.87
2019-05-02T10:03:26.801Z,26.25
2019-05-02T10:05:56.243Z,26.38
2019-05-02T10:08:25.653Z,26.44
2019-05-02T10:10:55.169Z,26.41
2019-05-02T10:13:24.605Z,26.02
2019-05-02T10:15:54.048Z,26.13
2019-05-02T10:18:28.328Z,26.09
2019-05-02T10:20:54.605Z,26.51
2019-05-02T10:23:24.175Z,26.85
2019-05-02T10:25:53.633Z,27.35
2019-05-02T10:28:23.056Z,27.76
2019-05-02T10:30:56.431Z,27.95
2019-05-02T10:33:28.088Z,27.87
2019-05-02T10:35:54.863Z,28.04
2019-05-02T10:38:24.275Z,28.25
2019-05-02T10:41:01.322Z,28.39
2019-05-02T10:43:24.974Z,28.39
2019-05-02T10:46:01.771Z,28.20
2019-05-02T10:48:33.018Z,28.88
2019-05-02T10:51:19.943Z,29.01
2019-05-02T10:53:52.672Z,28.98
2019-05-02T10:56:22.127Z,29.73
2019-05-02T10:58:52.338Z,30.19
2019-05-02T11:01:23.493Z,29.57
2019-05-02T11:03:53.720Z,30.10
2019-05-02T11:06:23.132Z,30.97
2019-05-02T11:08:52.688Z,30.85
2019-05-02T11:11:22.880Z,31.22
2019-05-02T11:14:17.044Z,31.24
2019-05-02T11:17:13.922Z,30.75
2019-05-02T11:19:48.229Z,30.68
2019-05-02T11:22:17.739Z,30.74
2019-05-02T11:24:47.218Z,29.60
2019-05-02T11:27:16.666Z,28.90
2019-05-02T11:29:46.098Z,27.81
2019-05-02T11:32:15.510Z,26.89
2019-05-02T11:34:44.957Z,26.13
2019-05-02T11:37:14.358Z,26.10
2019-05-02T11:39:49.427Z,26.66
2019-05-02T11:42:17.781Z,27.90
2019-05-02T11:44:46.097Z,29.41
2019-05-02T11:47:17.221Z,29.49
2019-05-02T11:49:50.915Z,30.09
2019-05-02T11:52:17.865Z,29.74
2019-05-02T11:54:48.650Z,29.18
2019-05-02T11:57:21.080Z,27.76
2019-05-02T11:59:49.478Z,27.43
2019-05-02T12:02:37.746Z,26.89
2019-05-02T12:05:08.879Z,26.59
2019-05-02T12:07:38.284Z,26.44
2019-05-02T12:10:07.896Z,27.09
2019-05-02T12:12:37.426Z,27.77
2019-05-02T12:15:08.369Z,28.91
2019-05-02T12:17:37.785Z,29.07
2019-05-02T12:20:07.634Z,28.54
2019-05-02T12:22:37.067Z,27.56
2019-05-02T12:25:06.588Z,27.10
2019-05-02T12:27:36.009Z,27.71
2019-05-02T12:30:05.564Z,29.08
2019-05-02T12:32:35.008Z,30.19
2019-05-02T12:35:04.628Z,30.28
2019-05-02T12:37:34.092Z,30.36
2019-05-02T12:40:03.528Z,29.48
2019-05-02T12:42:33.598Z,28.41
2019-05-02T12:45:03.377Z,28.05
2019-05-02T12:47:32.799Z,26.83
2019-05-02T12:50:03.156Z,26.49
2019-05-02T12:52:32.742Z,26.31
2019-05-02T12:55:02.386Z,25.51
2019-05-02T12:57:32.197Z,25.38
2019-05-02T13:00:02.172Z,24.98
2019-05-02T13:02:41.717Z,25.04
2019-05-02T13:05:13.094Z,25.49
2019-05-02T13:07:50.268Z,26.68
2019-05-02T13:10:16.537Z,27.55
2019-05-02T13:12:46.376Z,28.33
2019-05-02T13:15:15.923Z,28.82
2019-05-02T13:17:48.812Z,29.53
2019-05-02T13:20:18.203Z,29.42
2019-05-02T13:23:06.479Z,29.96
2019-05-02T13:25:37.059Z,30.74
2019-05-02T13:28:06.527Z,31.70
2019-05-02T13:30:46.809Z,31.51
2019-05-02T13:33:27.253Z,29.64
2019-05-02T13:35:57.616Z,28.28
2019-05-02T13:38:27.095Z,28.24
2019-05-02T13:40:56.582Z,28.29
2019-05-02T13:43:29.556Z,28.53
2019-05-02T13:46:12.598Z,29.19
2019-05-02T13:48:42.845Z,29.71
2019-05-02T13:51:12.673Z,30.59
2019-05-02T13:54:09.933Z,30.59
2019-05-02T13:56:49.857Z,30.16
2019-05-02T13:59:22.157Z,28.79
2019-05-02T14:01:52.558Z,28.05
2019-05-02T14:04:23.262Z,27.98
2019-05-02T14:06:53.192Z,27.66
2019-05-02T14:09:32.421Z,27.58
2019-05-02T14:12:15.601Z,27.01
2019-05-02T14:14:51.906Z,26.70
2019-05-02T14:17:22.971Z,25.84
2019-05-02T14:20:07.038Z,25.35
2019-05-02T14:22:24.118Z,25.02
2019-05-02T14:24:53.829Z,24.86
2019-05-02T14:27:23.285Z,24.60
2019-05-02T14:29:52.724Z,24.49
2019-05-02T14:32:26.328Z,24.64
2019-05-02T14:35:22.698Z,24.35
2019-05-02T14:38:07.800Z,24.34
2019-05-02T14:40:42.394Z,24.29
2019-05-02T14:43:13.031Z,24.10
2019-05-02T14:45:43.972Z,23.69
2019-05-02T14:48:21.168Z,23.63
2019-05-02T14:50:45.803Z,23.62
2019-05-02T14:53:16.870Z,23.81
2019-05-02T14:55:48.958Z,23.67
2019-05-02T14:58:18.372Z,23.44
2019-05-02T15:00:49.583Z,23.21
2019-05-02T15:03:23.776Z,23.14
2019-05-02T15:05:50.420Z,22.94
2019-05-02T15:08:19.961Z,22.57
2019-05-02T15:10:54.442Z,22.41
2019-05-02T15:13:20.548Z,22.38
2019-05-02T15:15:49.996Z,22.41
2019-05-02T15:18:19.441Z,22.38
2019-05-02T15:20:48.878Z,22.27
2019-05-02T15:23:19.845Z,22.17
2019-05-02T15:25:54.395Z,22.12
2019-05-02T15:28:22.867Z,22.11
2019-05-02T15:31:07.582Z,22.07
2019-05-02T15:33:43.756Z,22.01
2019-05-02T15:36:13.707Z,21.85
2019-05-02T15:38:47.359Z,21.81
2019-05-02T15:43:49.055Z,21.70
2019-05-02T15:46:22.563Z,21.63
2019-05-02T15:48:46.618Z,21.55
2019-05-02T15:51:16.040Z,21.49
2019-05-02T15:54:07.617Z,21.38
2019-05-02T15:56:27.781Z,21.35
2019-05-02T15:58:58.113Z,21.28
2019-05-02T16:01:47.309Z,21.18
2019-05-02T16:04:17.293Z,21.08
2019-05-02T16:06:45.624Z,21.06
2019-05-02T16:09:15.097Z,20.92
2019-05-02T16:11:47.903Z,20.85
2019-05-02T16:14:15.788Z,20.82
2019-05-02T16:16:45.458Z,20.68
2019-05-02T16:19:24.832Z,20.59
2019-05-02T16:21:52.057Z,20.59
2019-05-02T16:24:23.280Z,20.54
2019-05-02T16:26:56.440Z,20.46
2019-05-02T16:29:28.407Z,20.37
2019-05-02T16:32:14.158Z,20.28
2019-05-02T16:34:54.849Z,20.21
2019-05-02T16:37:23.975Z,20.12
2019-05-02T16:39:53.425Z,20.06
2019-05-02T16:42:22.939Z,19.99
2019-05-02T16:44:54.850Z,19.87
2019-05-02T16:47:23.530Z,19.79
2019-05-02T16:49:56.285Z,19.68
2019-05-02T16:52:24.134Z,19.56
2019-05-02T16:54:53.596Z,19.45
2019-05-02T16:57:23.823Z,19.40
2019-05-02T17:00:01.021Z,19.28
2019-05-02T17:02:24.711Z,19.15
2019-05-02T17:04:54.611Z,19.09
2019-05-02T17:07:34.939Z,19.06
2019-05-02T17:10:22.660Z,19.02
2019-05-02T17:12:56.436Z,18.95
2019-05-02T17:15:35.249Z,18.81
2019-05-02T17:18:12.158Z,18.71
2019-05-02T17:20:35.253Z,18.57
2019-05-02T17:23:07.415Z,18.41
2019-05-02T17:25:36.179Z,18.27
2019-05-02T17:28:10.026Z,18.08
2019-05-02T17:30:38.807Z,17.92
2019-05-02T17:33:12.778Z,17.76
2019-05-02T17:35:43.454Z,17.60
2019-05-02T17:38:12.046Z,17.43
2019-05-02T17:40:42.156Z,17.28
2019-05-02T17:43:11.849Z,17.15
2019-05-02T17:45:41.279Z,17.01
2019-05-02T17:48:16.408Z,16.93
2019-05-02T17:51:01.939Z,16.82
2019-05-02T17:53:33.874Z,16.78
2019-05-02T17:56:02.033Z,16.68
2019-05-02T17:58:31.896Z,16.63
2019-05-02T18:01:02.977Z,16.42
2019-05-02T18:03:35.162Z,16.46
2019-05-02T18:06:07.489Z,16.38
2019-05-02T18:08:34.730Z,16.29
2019-05-02T18:11:04.218Z,16.27
2019-05-02T18:13:35.294Z,16.21
2019-05-02T18:16:07.776Z,16.18
2019-05-02T18:18:37.617Z,16.13
2019-05-02T18:21:07.190Z,16.11
2019-05-02T18:23:36.633Z,16.09
2019-05-02T18:26:06.415Z,16.06
2019-05-02T18:28:46.180Z,16.01
2019-05-02T18:31:07.156Z,15.97
2019-05-02T18:33:41.194Z,16.00
2019-05-02T18:36:07.717Z,15.96
2019-05-02T18:38:37.143Z,15.96
2019-05-02T18:41:07.973Z,15.94
2019-05-02T18:43:43.566Z,15.89
2019-05-02T18:46:08.555Z,15.90
2019-05-02T18:48:42.090Z,15.88
2019-05-02T18:51:09.179Z,15.85
2019-05-02T18:53:38.635Z,15.83
2019-05-02T18:56:08.076Z,15.80
2019-05-02T18:58:41.569Z,15.75
2019-05-02T19:01:13.298Z,15.70
2019-05-02T19:03:39.907Z,15.66
2019-05-02T19:06:09.356Z,15.59
2019-05-02T19:08:46.612Z,15.51
2019-05-02T19:11:12.353Z,15.47
2019-05-02T19:13:42.672Z,15.48
2019-05-02T19:16:13.166Z,15.46
2019-05-02T19:18:42.765Z,15.48
2019-05-02T19:21:12.693Z,15.46
2019-05-02T19:23:42.597Z,15.41
2019-05-02T19:26:14.960Z,15.37
2019-05-02T19:29:03.613Z,15.31
2019-05-02T19:31:46.329Z,15.30
2019-05-02T19:34:16.732Z,15.31
2019-05-02T19:36:46.862Z,15.28
2019-05-02T19:39:16.297Z,15.24
2019-05-02T19:41:45.812Z,15.32
2019-05-02T19:44:15.474Z,15.32
2019-05-02T19:46:44.989Z,15.38
2019-05-02T19:49:16.264Z,15.33
2019-05-02T19:51:50.247Z,15.38
2019-05-02T19:54:16.746Z,15.34
2019-05-02T19:56:47.589Z,15.37
2019-05-02T19:59:22.499Z,15.36
2019-05-02T20:01:48.437Z,15.30
2019-05-02T20:04:17.879Z,15.24
2019-05-02T20:06:47.311Z,15.23
2019-05-02T20:09:16.768Z,15.18
2019-05-02T20:11:46.203Z,15.15
2019-05-02T20:14:15.636Z,15.15
2019-05-02T20:16:52.745Z,15.14
2019-05-02T20:19:25.749Z,15.14
2019-05-02T20:22:02.811Z,15.16
2019-05-02T20:24:49.253Z,15.16
2019-05-02T20:27:18.223Z,15.18
2019-05-02T20:29:47.637Z,15.18
2019-05-02T20:32:17.072Z,15.28
2019-05-02T20:34:46.488Z,15.32
2019-05-02T20:37:15.912Z,15.38
2019-05-02T20:39:45.325Z,15.50
2019-05-02T20:42:14.757Z,15.52
2019-05-02T20:44:44.176Z,15.51
2019-05-02T20:47:15.868Z,15.56
2019-05-02T20:49:45.273Z,15.58
2019-05-02T20:52:14.707Z,15.58
2019-05-02T20:54:44.142Z,15.61
2019-05-02T20:57:13.552Z,15.64
2019-05-02T20:59:42.956Z,15.65
2019-05-02T21:02:12.401Z,15.61
2019-05-02T21:04:42.479Z,15.60
2019-05-02T21:07:32.817Z,15.58
2019-05-02T21:10:26.870Z,15.57
2019-05-02T21:12:56.304Z,15.67
2019-05-02T21:15:25.736Z,15.67
2019-05-02T21:17:55.145Z,15.73
2019-05-02T21:20:24.608Z,15.74
2019-05-02T21:22:54.057Z,15.72
2019-05-02T21:25:23.493Z,15.67
2019-05-02T21:27:52.901Z,15.70
2019-05-02T21:30:25.676Z,15.68
2019-05-02T21:32:55.082Z,15.65
2019-05-02T21:35:24.525Z,15.58
2019-05-02T21:37:53.976Z,15.57
2019-05-02T21:40:25.767Z,15.56
2019-05-02T21:42:54.533Z,15.56
2019-05-02T21:45:23.940Z,15.49
2019-05-02T21:47:53.388Z,15.47
2019-05-02T21:50:33.115Z,15.45
2019-05-02T21:53:19.245Z,15.38
2019-05-02T21:55:57.953Z,15.35
2019-05-02T21:58:27.390Z,15.37
2019-05-02T22:01:15.686Z,15.31
2019-05-02T22:03:45.295Z,15.25
2019-05-02T22:06:14.703Z,15.20
2019-05-02T22:08:44.204Z,15.21
2019-05-02T22:11:13.665Z,15.18
2019-05-02T22:13:43.105Z,15.14
2019-05-02T22:16:13.075Z,15.15
2019-05-02T22:18:42.856Z,15.14
2019-05-02T22:21:12.401Z,15.14
2019-05-02T22:23:42.599Z,15.14
2019-05-02T22:26:12.772Z,15.13
2019-05-02T22:28:42.373Z,15.13
2019-05-02T22:31:12.371Z,15.10
2019-05-02T22:33:42.197Z,15.14
2019-05-02T22:36:12.382Z,15.15
2019-05-02T22:39:06.603Z,15.18
2019-05-02T22:41:36.013Z,15.19
2019-05-02T22:44:05.460Z,15.22
2019-05-02T22:46:43.170Z,15.24
2019-05-02T22:49:14.751Z,15.28
2019-05-02T22:51:44.492Z,15.28
2019-05-02T22:54:26.357Z,15.29
2019-05-02T22:56:45.110Z,15.26
2019-05-02T22:59:14.538Z,15.26
2019-05-02T23:01:43.973Z,15.28
2019-05-02T23:04:13.618Z,15.30
2019-05-02T23:06:44.245Z,15.31
2019-05-02T23:09:13.836Z,15.32
2019-05-02T23:11:43.329Z,15.33
2019-05-02T23:14:12.744Z,15.31
2019-05-02T23:16:42.891Z,15.35
2019-05-02T23:19:12.576Z,15.33
2019-05-02T23:21:42.463Z,15.36
2019-05-02T23:24:23.753Z,15.32
2019-05-02T23:27:14.212Z,15.33
2019-05-02T23:29:43.616Z,15.33
2019-05-02T23:32:13.067Z,15.33
2019-05-02T23:34:42.489Z,15.29
2019-05-02T23:37:12.058Z,15.26
2019-05-02T23:39:41.871Z,15.22
2019-05-02T23:42:13.177Z,15.28
2019-05-02T23:44:42.630Z,15.26
2019-05-02T23:47:12.042Z,15.23
2019-05-02T23:49:42.718Z,15.29
2019-05-02T23:52:12.301Z,15.26
2019-05-02T23:54:49.968Z,15.23
2019-05-02T23:57:12.920Z,15.24
2019-05-02T23:59:42.484Z,15.21
